sensor_id;sensor_type;location;lat;lon;timestamp;P1;durP1;ratioP1;P2;durP2;ratioP2
55647;SDS011;45266;48.756;9.246;2023-10-31T00:00:49;1.43;;;0.50;;
55647;SDS011;45266;48.756;9.246;2023-10-31T00:05:54;0.50;;;0.40;;
55647;SDS011;45266;48.756;9.246;2023-10-31T00:11:04;5.00;;;0.70;;
55647;SDS011;45266;48.756;9.246;2023-10-31T00:16:15;4.63;;;0.77;;
55647;SDS011;45266;48.756;9.246;2023-10-31T00:21:23;2.50;;;0.50;;
55647;SDS011;45266;48.756;9.246;2023-10-31T00:26:33;0.60;;;0.60;;
55647;SDS011;45266;48.756;9.246;2023-10-31T00:31:42;0.77;;;0.70;;
55647;SDS011;45266;48.756;9.246;2023-10-31T00:36:50;3.33;;;0.60;;
55647;SDS011;45266;48.756;9.246;2023-10-31T00:41:59;0.80;;;0.53;;
55647;SDS011;45266;48.756;9.246;2023-10-31T00:47:09;0.77;;;0.40;;
55647;SDS011;45266;48.756;9.246;2023-10-31T00:52:18;0.50;;;0.40;;
55647;SDS011;45266;48.756;9.246;2023-10-31T00:57:27;0.63;;;0.40;;
55647;SDS011;45266;48.756;9.246;2023-10-31T01:02:34;3.60;;;0.60;;
55647;SDS011;45266;48.756;9.246;2023-10-31T01:07:42;0.50;;;0.50;;
55647;SDS011;45266;48.756;9.246;2023-10-31T01:12:48;1.13;;;0.53;;
55647;SDS011;45266;48.756;9.246;2023-10-31T01:17:54;0.80;;;0.50;;
55647;SDS011;45266;48.756;9.246;2023-10-31T01:23:00;2.40;;;0.50;;
55647;SDS011;45266;48.756;9.246;2023-10-31T01:28:07;1.07;;;0.47;;
55647;SDS011;45266;48.756;9.246;2023-10-31T01:33:15;1.10;;;0.50;;
55647;SDS011;45266;48.756;9.246;2023-10-31T01:38:23;1.43;;;0.67;;
55647;SDS011;45266;48.756;9.246;2023-10-31T01:43:32;1.57;;;0.70;;
55647;SDS011;45266;48.756;9.246;2023-10-31T01:48:39;3.27;;;0.50;;
55647;SDS011;45266;48.756;9.246;2023-10-31T01:53:46;0.90;;;0.53;;
55647;SDS011;45266;48.756;9.246;2023-10-31T01:58:53;1.40;;;0.70;;
55647;SDS011;45266;48.756;9.246;2023-10-31T02:04:00;0.60;;;0.50;;
55647;SDS011;45266;48.756;9.246;2023-10-31T02:09:08;0.50;;;0.40;;
55647;SDS011;45266;48.756;9.246;2023-10-31T02:14:18;0.87;;;0.77;;
55647;SDS011;45266;48.756;9.246;2023-10-31T02:19:27;0.70;;;0.50;;
55647;SDS011;45266;48.756;9.246;2023-10-31T02:24:33;0.60;;;0.60;;
55647;SDS011;45266;48.756;9.246;2023-10-31T02:29:40;23.57;;;1.13;;
55647;SDS011;45266;48.756;9.246;2023-10-31T02:34:49;0.50;;;0.40;;
55647;SDS011;45266;48.756;9.246;2023-10-31T02:39:56;0.60;;;0.40;;
55647;SDS011;45266;48.756;9.246;2023-10-31T02:45:04;0.60;;;0.60;;
55647;SDS011;45266;48.756;9.246;2023-10-31T02:50:13;0.77;;;0.63;;
55647;SDS011;45266;48.756;9.246;2023-10-31T02:55:19;0.90;;;0.50;;
55647;SDS011;45266;48.756;9.246;2023-10-31T03:00:24;0.50;;;0.50;;
55647;SDS011;45266;48.756;9.246;2023-10-31T03:05:30;0.60;;;0.50;;
55647;SDS011;45266;48.756;9.246;2023-10-31T03:10:37;0.80;;;0.67;;
55647;SDS011;45266;48.756;9.246;2023-10-31T03:15:44;0.70;;;0.70;;
55647;SDS011;45266;48.756;9.246;2023-10-31T03:20:53;0.63;;;0.50;;
55647;SDS011;45266;48.756;9.246;2023-10-31T03:25:58;0.60;;;0.60;;
55647;SDS011;45266;48.756;9.246;2023-10-31T03:31:04;0.70;;;0.50;;
55647;SDS011;45266;48.756;9.246;2023-10-31T03:36:10;0.70;;;0.53;;
55647;SDS011;45266;48.756;9.246;2023-10-31T03:41:16;1.57;;;1.10;;
55647;SDS011;45266;48.756;9.246;2023-10-31T03:46:22;2.03;;;0.60;;
55647;SDS011;45266;48.756;9.246;2023-10-31T03:51:29;3.57;;;0.67;;
55647;SDS011;45266;48.756;9.246;2023-10-31T03:56:39;0.60;;;0.60;;
55647;SDS011;45266;48.756;9.246;2023-10-31T04:01:45;0.50;;;0.40;;
55647;SDS011;45266;48.756;9.246;2023-10-31T04:06:50;0.70;;;0.53;;
55647;SDS011;45266;48.756;9.246;2023-10-31T04:11:56;4.73;;;0.70;;
55647;SDS011;45266;48.756;9.246;2023-10-31T04:17:03;0.60;;;0.50;;
55647;SDS011;45266;48.756;9.246;2023-10-31T04:22:09;0.83;;;0.60;;
55647;SDS011;45266;48.756;9.246;2023-10-31T04:27:14;0.63;;;0.60;;
55647;SDS011;45266;48.756;9.246;2023-10-31T04:32:20;8.63;;;0.83;;
55647;SDS011;45266;48.756;9.246;2023-10-31T04:37:26;1.17;;;0.80;;
55647;SDS011;45266;48.756;9.246;2023-10-31T04:42:35;0.73;;;0.73;;
55647;SDS011;45266;48.756;9.246;2023-10-31T04:47:42;0.93;;;0.80;;
55647;SDS011;45266;48.756;9.246;2023-10-31T04:52:49;5.30;;;0.70;;
55647;SDS011;45266;48.756;9.246;2023-10-31T04:57:54;0.80;;;0.70;;
55647;SDS011;45266;48.756;9.246;2023-10-31T05:02:59;1.60;;;1.20;;
55647;SDS011;45266;48.756;9.246;2023-10-31T05:08:07;1.43;;;0.77;;
55647;SDS011;45266;48.756;9.246;2023-10-31T05:13:12;1.37;;;1.27;;
55647;SDS011;45266;48.756;9.246;2023-10-31T05:18:18;0.80;;;0.60;;
55647;SDS011;45266;48.756;9.246;2023-10-31T05:23:23;0.70;;;0.60;;
55647;SDS011;45266;48.756;9.246;2023-10-31T05:28:28;1.43;;;1.10;;
55647;SDS011;45266;48.756;9.246;2023-10-31T05:33:34;4.73;;;0.80;;
55647;SDS011;45266;48.756;9.246;2023-10-31T05:38:40;1.77;;;1.07;;
55647;SDS011;45266;48.756;9.246;2023-10-31T05:43:46;0.77;;;0.70;;
55647;SDS011;45266;48.756;9.246;2023-10-31T05:48:52;4.57;;;1.10;;
55647;SDS011;45266;48.756;9.246;2023-10-31T05:53:56;1.30;;;0.90;;
55647;SDS011;45266;48.756;9.246;2023-10-31T05:59:02;1.20;;;1.07;;
55647;SDS011;45266;48.756;9.246;2023-10-31T06:04:05;8.43;;;0.70;;
55647;SDS011;45266;48.756;9.246;2023-10-31T06:09:12;2.80;;;0.90;;
55647;SDS011;45266;48.756;9.246;2023-10-31T06:14:18;0.80;;;0.80;;
55647;SDS011;45266;48.756;9.246;2023-10-31T06:19:29;0.90;;;0.77;;
55647;SDS011;45266;48.756;9.246;2023-10-31T06:24:42;3.60;;;0.90;;
55647;SDS011;45266;48.756;9.246;2023-10-31T06:29:51;3.80;;;1.67;;
55647;SDS011;45266;48.756;9.246;2023-10-31T06:35:17;1.70;;;1.20;;
55647;SDS011;45266;48.756;9.246;2023-10-31T06:40:25;2.63;;;0.80;;
55647;SDS011;45266;48.756;9.246;2023-10-31T06:45:33;4.50;;;1.10;;
55647;SDS011;45266;48.756;9.246;2023-10-31T06:50:42;5.33;;;1.13;;
55647;SDS011;45266;48.756;9.246;2023-10-31T06:55:49;2.60;;;1.00;;
55647;SDS011;45266;48.756;9.246;2023-10-31T07:00:56;1.90;;;1.53;;
55647;SDS011;45266;48.756;9.246;2023-10-31T07:06:06;3.67;;;3.07;;
55647;SDS011;45266;48.756;9.246;2023-10-31T07:11:15;9.40;;;3.63;;
55647;SDS011;45266;48.756;9.246;2023-10-31T07:16:25;2.83;;;2.27;;
55647;SDS011;45266;48.756;9.246;2023-10-31T07:21:35;6.50;;;3.20;;
55647;SDS011;45266;48.756;9.246;2023-10-31T07:26:46;3.27;;;2.50;;
55647;SDS011;45266;48.756;9.246;2023-10-31T07:31:53;3.60;;;2.17;;
55647;SDS011;45266;48.756;9.246;2023-10-31T07:37:03;3.13;;;2.03;;
55647;SDS011;45266;48.756;9.246;2023-10-31T07:42:13;1.80;;;1.40;;
55647;SDS011;45266;48.756;9.246;2023-10-31T07:47:20;1.70;;;1.17;;
55647;SDS011;45266;48.756;9.246;2023-10-31T07:52:31;1.33;;;0.90;;
55647;SDS011;45266;48.756;9.246;2023-10-31T07:57:42;2.00;;;1.00;;
55647;SDS011;45266;48.756;9.246;2023-10-31T08:02:49;4.00;;;1.00;;
55647;SDS011;45266;48.756;9.246;2023-10-31T08:07:58;1.17;;;0.77;;
55647;SDS011;45266;48.756;9.246;2023-10-31T08:13:09;1.00;;;0.67;;
55647;SDS011;45266;48.756;9.246;2023-10-31T08:18:19;1.00;;;0.80;;
55647;SDS011;45266;48.756;9.246;2023-10-31T08:23:30;1.10;;;1.00;;
55647;SDS011;45266;48.756;9.246;2023-10-31T08:28:42;0.70;;;0.70;;
55647;SDS011;45266;48.756;9.246;2023-10-31T08:33:47;0.83;;;0.70;;
55647;SDS011;45266;48.756;9.246;2023-10-31T08:38:54;5.10;;;3.33;;
55647;SDS011;45266;48.756;9.246;2023-10-31T08:44:01;1.17;;;0.70;;
55647;SDS011;45266;48.756;9.246;2023-10-31T08:49:12;1.03;;;0.60;;
55647;SDS011;45266;48.756;9.246;2023-10-31T08:54:19;5.23;;;1.03;;
55647;SDS011;45266;48.756;9.246;2023-10-31T08:59:25;0.80;;;0.57;;
55647;SDS011;45266;48.756;9.246;2023-10-31T09:04:32;0.63;;;0.60;;
55647;SDS011;45266;48.756;9.246;2023-10-31T09:09:40;1.97;;;0.57;;
55647;SDS011;45266;48.756;9.246;2023-10-31T09:14:47;0.97;;;0.70;;
55647;SDS011;45266;48.756;9.246;2023-10-31T09:19:54;1.03;;;0.80;;
55647;SDS011;45266;48.756;9.246;2023-10-31T09:24:58;1.17;;;0.70;;
55647;SDS011;45266;48.756;9.246;2023-10-31T09:30:15;3.73;;;1.03;;
55647;SDS011;45266;48.756;9.246;2023-10-31T09:35:23;0.90;;;0.73;;
55647;SDS011;45266;48.756;9.246;2023-10-31T09:40:33;2.30;;;0.80;;
55647;SDS011;45266;48.756;9.246;2023-10-31T09:45:45;0.70;;;0.60;;
55647;SDS011;45266;48.756;9.246;2023-10-31T09:50:53;4.63;;;1.10;;
55647;SDS011;45266;48.756;9.246;2023-10-31T09:56:03;1.00;;;0.67;;
55647;SDS011;45266;48.756;9.246;2023-10-31T10:01:08;0.83;;;0.60;;
55647;SDS011;45266;48.756;9.246;2023-10-31T10:06:20;0.80;;;0.57;;
55647;SDS011;45266;48.756;9.246;2023-10-31T10:11:28;1.10;;;0.80;;
55647;SDS011;45266;48.756;9.246;2023-10-31T10:16:35;7.30;;;0.83;;
55647;SDS011;45266;48.756;9.246;2023-10-31T10:21:46;1.53;;;0.70;;
55647;SDS011;45266;48.756;9.246;2023-10-31T10:27:00;1.43;;;0.63;;
55647;SDS011;45266;48.756;9.246;2023-10-31T10:32:11;3.33;;;0.97;;
55647;SDS011;45266;48.756;9.246;2023-10-31T10:37:25;3.80;;;0.87;;
55647;SDS011;45266;48.756;9.246;2023-10-31T10:42:44;6.00;;;0.80;;
55647;SDS011;45266;48.756;9.246;2023-10-31T10:47:58;0.83;;;0.70;;
55647;SDS011;45266;48.756;9.246;2023-10-31T10:53:24;4.50;;;1.00;;
55647;SDS011;45266;48.756;9.246;2023-10-31T11:04:05;6.70;;;0.90;;
55647;SDS011;45266;48.756;9.246;2023-10-31T11:09:17;1.80;;;0.83;;
55647;SDS011;45266;48.756;9.246;2023-10-31T11:14:25;1.30;;;1.20;;
55647;SDS011;45266;48.756;9.246;2023-10-31T11:19:35;1.10;;;0.93;;
55647;SDS011;45266;48.756;9.246;2023-10-31T11:24:44;4.23;;;0.90;;
55647;SDS011;45266;48.756;9.246;2023-10-31T11:29:51;2.60;;;0.60;;
55647;SDS011;45266;48.756;9.246;2023-10-31T11:35:03;1.87;;;1.00;;
55647;SDS011;45266;48.756;9.246;2023-10-31T11:45:31;1.37;;;1.10;;
55647;SDS011;45266;48.756;9.246;2023-10-31T11:50:58;1.37;;;0.80;;
55647;SDS011;45266;48.756;9.246;2023-10-31T11:56:12;3.00;;;0.90;;
55647;SDS011;45266;48.756;9.246;2023-10-31T12:01:24;3.60;;;0.80;;
55647;SDS011;45266;48.756;9.246;2023-10-31T12:06:38;4.70;;;1.00;;
55647;SDS011;45266;48.756;9.246;2023-10-31T12:11:48;1.80;;;1.10;;
55647;SDS011;45266;48.756;9.246;2023-10-31T12:17:03;2.50;;;0.97;;
55647;SDS011;45266;48.756;9.246;2023-10-31T12:22:19;1.60;;;1.50;;
55647;SDS011;45266;48.756;9.246;2023-10-31T12:27:49;1.80;;;1.50;;
55647;SDS011;45266;48.756;9.246;2023-10-31T12:33:00;5.23;;;1.27;;
55647;SDS011;45266;48.756;9.246;2023-10-31T12:38:11;1.77;;;1.30;;
55647;SDS011;45266;48.756;9.246;2023-10-31T12:43:23;2.63;;;1.10;;
55647;SDS011;45266;48.756;9.246;2023-10-31T12:48:37;1.67;;;0.97;;
55647;SDS011;45266;48.756;9.246;2023-10-31T12:53:49;0.77;;;0.60;;
55647;SDS011;45266;48.756;9.246;2023-10-31T12:59:07;0.70;;;0.53;;
55647;SDS011;45266;48.756;9.246;2023-10-31T13:04:25;0.70;;;0.53;;
55647;SDS011;45266;48.756;9.246;2023-10-31T13:09:41;1.40;;;0.73;;
55647;SDS011;45266;48.756;9.246;2023-10-31T13:14:51;0.60;;;0.50;;
55647;SDS011;45266;48.756;9.246;2023-10-31T13:19:59;0.60;;;0.50;;
55647;SDS011;45266;48.756;9.246;2023-10-31T13:25:11;1.50;;;0.80;;
55647;SDS011;45266;48.756;9.246;2023-10-31T13:30:21;0.60;;;0.40;;
55647;SDS011;45266;48.756;9.246;2023-10-31T13:35:34;5.70;;;0.80;;
55647;SDS011;45266;48.756;9.246;2023-10-31T13:40:46;1.23;;;0.40;;
55647;SDS011;45266;48.756;9.246;2023-10-31T13:45:54;3.30;;;0.57;;
55647;SDS011;45266;48.756;9.246;2023-10-31T13:51:07;0.40;;;0.40;;
55647;SDS011;45266;48.756;9.246;2023-10-31T13:56:18;0.80;;;0.50;;
55647;SDS011;45266;48.756;9.246;2023-10-31T14:01:30;3.23;;;0.53;;
55647;SDS011;45266;48.756;9.246;2023-10-31T14:06:42;1.10;;;0.50;;
55647;SDS011;45266;48.756;9.246;2023-10-31T14:12:00;8.93;;;1.13;;
55647;SDS011;45266;48.756;9.246;2023-10-31T14:17:11;1.57;;;0.70;;
55647;SDS011;45266;48.756;9.246;2023-10-31T14:22:25;1.43;;;0.63;;
55647;SDS011;45266;48.756;9.246;2023-10-31T14:27:41;1.27;;;0.70;;
55647;SDS011;45266;48.756;9.246;2023-10-31T14:32:52;2.50;;;0.60;;
55647;SDS011;45266;48.756;9.246;2023-10-31T14:38:05;0.63;;;0.50;;
55647;SDS011;45266;48.756;9.246;2023-10-31T14:43:20;1.10;;;0.60;;
55647;SDS011;45266;48.756;9.246;2023-10-31T14:48:32;2.30;;;0.60;;
55647;SDS011;45266;48.756;9.246;2023-10-31T14:53:44;2.20;;;0.70;;
55647;SDS011;45266;48.756;9.246;2023-10-31T14:58:58;2.63;;;0.90;;
55647;SDS011;45266;48.756;9.246;2023-10-31T15:04:11;0.90;;;0.67;;
55647;SDS011;45266;48.756;9.246;2023-10-31T15:09:27;4.23;;;0.90;;
55647;SDS011;45266;48.756;9.246;2023-10-31T15:14:38;1.60;;;0.67;;
55647;SDS011;45266;48.756;9.246;2023-10-31T15:19:49;0.50;;;0.50;;
55647;SDS011;45266;48.756;9.246;2023-10-31T15:25:02;2.10;;;0.70;;
55647;SDS011;45266;48.756;9.246;2023-10-31T15:30:19;1.70;;;0.90;;
55647;SDS011;45266;48.756;9.246;2023-10-31T15:35:31;1.80;;;1.30;;
55647;SDS011;45266;48.756;9.246;2023-10-31T15:40:38;1.00;;;0.90;;
55647;SDS011;45266;48.756;9.246;2023-10-31T15:45:50;1.67;;;1.10;;
55647;SDS011;45266;48.756;9.246;2023-10-31T15:51:06;1.10;;;0.93;;
55647;SDS011;45266;48.756;9.246;2023-10-31T15:56:20;2.00;;;0.73;;
55647;SDS011;45266;48.756;9.246;2023-10-31T16:01:32;1.63;;;1.00;;
55647;SDS011;45266;48.756;9.246;2023-10-31T16:06:39;3.07;;;1.07;;
55647;SDS011;45266;48.756;9.246;2023-10-31T16:11:47;4.03;;;1.00;;
55647;SDS011;45266;48.756;9.246;2023-10-31T16:22:29;3.10;;;0.80;;
55647;SDS011;45266;48.756;9.246;2023-10-31T16:27:41;1.57;;;1.07;;
55647;SDS011;45266;48.756;9.246;2023-10-31T16:32:58;5.03;;;0.90;;
55647;SDS011;45266;48.756;9.246;2023-10-31T16:38:12;1.93;;;0.97;;
55647;SDS011;45266;48.756;9.246;2023-10-31T16:43:23;1.10;;;1.00;;
55647;SDS011;45266;48.756;9.246;2023-10-31T16:48:38;2.57;;;1.40;;
55647;SDS011;45266;48.756;9.246;2023-10-31T16:53:49;5.50;;;1.67;;
55647;SDS011;45266;48.756;9.246;2023-10-31T16:58:57;2.03;;;1.57;;
55647;SDS011;45266;48.756;9.246;2023-10-31T17:04:05;1.63;;;1.30;;
55647;SDS011;45266;48.756;9.246;2023-10-31T17:09:14;3.73;;;1.30;;
55647;SDS011;45266;48.756;9.246;2023-10-31T17:14:28;2.20;;;1.27;;
55647;SDS011;45266;48.756;9.246;2023-10-31T17:19:43;4.03;;;1.50;;
55647;SDS011;45266;48.756;9.246;2023-10-31T17:24:58;3.17;;;1.30;;
55647;SDS011;45266;48.756;9.246;2023-10-31T17:30:06;2.30;;;2.10;;
55647;SDS011;45266;48.756;9.246;2023-10-31T17:35:16;2.13;;;1.47;;
55647;SDS011;45266;48.756;9.246;2023-10-31T17:40:23;1.93;;;1.60;;
55647;SDS011;45266;48.756;9.246;2023-10-31T17:45:31;1.97;;;1.40;;
55647;SDS011;45266;48.756;9.246;2023-10-31T17:50:47;3.07;;;1.00;;
55647;SDS011;45266;48.756;9.246;2023-10-31T17:55:57;2.30;;;1.00;;
55647;SDS011;45266;48.756;9.246;2023-10-31T18:01:05;1.43;;;1.23;;
55647;SDS011;45266;48.756;9.246;2023-10-31T18:06:12;0.97;;;0.97;;
55647;SDS011;45266;48.756;9.246;2023-10-31T18:11:21;1.57;;;1.47;;
55647;SDS011;45266;48.756;9.246;2023-10-31T18:16:32;3.77;;;1.23;;
55647;SDS011;45266;48.756;9.246;2023-10-31T18:21:45;9.53;;;1.60;;
55647;SDS011;45266;48.756;9.246;2023-10-31T18:26:53;1.80;;;1.70;;
55647;SDS011;45266;48.756;9.246;2023-10-31T18:32:03;1.40;;;1.30;;
55647;SDS011;45266;48.756;9.246;2023-10-31T18:37:19;1.40;;;1.30;;
55647;SDS011;45266;48.756;9.246;2023-10-31T18:42:34;2.83;;;2.20;;
55647;SDS011;45266;48.756;9.246;2023-10-31T18:47:51;2.33;;;2.13;;
55647;SDS011;45266;48.756;9.246;2023-10-31T18:53:01;3.80;;;2.10;;
55647;SDS011;45266;48.756;9.246;2023-10-31T18:58:13;3.40;;;1.90;;
55647;SDS011;45266;48.756;9.246;2023-10-31T19:03:21;5.50;;;1.60;;
55647;SDS011;45266;48.756;9.246;2023-10-31T19:08:33;2.70;;;2.03;;
55647;SDS011;45266;48.756;9.246;2023-10-31T19:13:40;1.97;;;1.30;;
55647;SDS011;45266;48.756;9.246;2023-10-31T19:18:52;1.90;;;1.70;;
55647;SDS011;45266;48.756;9.246;2023-10-31T19:24:01;2.13;;;1.33;;
55647;SDS011;45266;48.756;9.246;2023-10-31T19:29:10;4.57;;;2.47;;
55647;SDS011;45266;48.756;9.246;2023-10-31T19:34:22;2.10;;;1.90;;
55647;SDS011;45266;48.756;9.246;2023-10-31T19:39:40;3.10;;;2.47;;
55647;SDS011;45266;48.756;9.246;2023-10-31T19:44:51;3.10;;;2.23;;
55647;SDS011;45266;48.756;9.246;2023-10-31T19:50:01;5.77;;;2.00;;
55647;SDS011;45266;48.756;9.246;2023-10-31T19:55:11;2.07;;;1.83;;
55647;SDS011;45266;48.756;9.246;2023-10-31T20:00:24;2.90;;;1.90;;
55647;SDS011;45266;48.756;9.246;2023-10-31T20:05:36;2.30;;;1.60;;
55647;SDS011;45266;48.756;9.246;2023-10-31T20:10:43;4.20;;;1.73;;
55647;SDS011;45266;48.756;9.246;2023-10-31T20:15:53;2.33;;;2.10;;
55647;SDS011;45266;48.756;9.246;2023-10-31T20:21:02;1.50;;;1.40;;
55647;SDS011;45266;48.756;9.246;2023-10-31T20:26:11;3.63;;;1.73;;
55647;SDS011;45266;48.756;9.246;2023-10-31T20:31:27;1.50;;;1.40;;
55647;SDS011;45266;48.756;9.246;2023-10-31T20:36:38;7.83;;;1.67;;
55647;SDS011;45266;48.756;9.246;2023-10-31T20:41:49;4.50;;;1.50;;
55647;SDS011;45266;48.756;9.246;2023-10-31T20:47:05;2.27;;;1.43;;
55647;SDS011;45266;48.756;9.246;2023-10-31T20:52:18;1.53;;;1.20;;
55647;SDS011;45266;48.756;9.246;2023-10-31T20:57:34;1.30;;;1.20;;
55647;SDS011;45266;48.756;9.246;2023-10-31T21:02:44;2.20;;;2.00;;
55647;SDS011;45266;48.756;9.246;2023-10-31T21:07:58;3.17;;;2.30;;
55647;SDS011;45266;48.756;9.246;2023-10-31T21:13:08;2.10;;;1.77;;
55647;SDS011;45266;48.756;9.246;2023-10-31T21:18:20;4.33;;;2.00;;
55647;SDS011;45266;48.756;9.246;2023-10-31T21:23:32;2.47;;;1.77;;
55647;SDS011;45266;48.756;9.246;2023-10-31T21:28:46;5.87;;;2.23;;
55647;SDS011;45266;48.756;9.246;2023-10-31T21:34:03;4.03;;;1.50;;
55647;SDS011;45266;48.756;9.246;2023-10-31T21:39:18;3.30;;;1.60;;
55647;SDS011;45266;48.756;9.246;2023-10-31T21:44:34;5.40;;;2.33;;
55647;SDS011;45266;48.756;9.246;2023-10-31T21:49:55;3.50;;;2.33;;
55647;SDS011;45266;48.756;9.246;2023-10-31T21:55:05;2.20;;;1.90;;
55647;SDS011;45266;48.756;9.246;2023-10-31T22:00:20;5.83;;;1.43;;
55647;SDS011;45266;48.756;9.246;2023-10-31T22:05:34;1.60;;;1.50;;
55647;SDS011;45266;48.756;9.246;2023-10-31T22:10:46;5.87;;;2.23;;
55647;SDS011;45266;48.756;9.246;2023-10-31T22:15:58;1.60;;;1.50;;
55647;SDS011;45266;48.756;9.246;2023-10-31T22:21:11;2.63;;;1.57;;
55647;SDS011;45266;48.756;9.246;2023-10-31T22:26:27;1.43;;;1.30;;
55647;SDS011;45266;48.756;9.246;2023-10-31T22:31:44;1.50;;;1.00;;
55647;SDS011;45266;48.756;9.246;2023-10-31T22:36:56;2.17;;;1.67;;
55647;SDS011;45266;48.756;9.246;2023-10-31T22:42:07;5.93;;;2.63;;
55647;SDS011;45266;48.756;9.246;2023-10-31T22:47:18;2.10;;;1.90;;
55647;SDS011;45266;48.756;9.246;2023-10-31T22:52:28;2.87;;;1.60;;
55647;SDS011;45266;48.756;9.246;2023-10-31T22:57:42;3.37;;;1.97;;
55647;SDS011;45266;48.756;9.246;2023-10-31T23:02:55;1.60;;;1.50;;
55647;SDS011;45266;48.756;9.246;2023-10-31T23:08:06;2.80;;;2.37;;
55647;SDS011;45266;48.756;9.246;2023-10-31T23:13:20;3.93;;;1.70;;
55647;SDS011;45266;48.756;9.246;2023-10-31T23:18:31;1.90;;;1.60;;
55647;SDS011;45266;48.756;9.246;2023-10-31T23:23:43;1.80;;;1.30;;
55647;SDS011;45266;48.756;9.246;2023-10-31T23:28:56;6.03;;;2.10;;
55647;SDS011;45266;48.756;9.246;2023-10-31T23:34:06;1.30;;;1.20;;
55647;SDS011;45266;48.756;9.246;2023-10-31T23:39:22;2.60;;;1.67;;
55647;SDS011;45266;48.756;9.246;2023-10-31T23:44:34;7.10;;;2.53;;
55647;SDS011;45266;48.756;9.246;2023-10-31T23:49:47;1.53;;;1.20;;
55647;SDS011;45266;48.756;9.246;2023-10-31T23:55:00;1.20;;;1.00;;
